空港情報

日本の空港の気象及び、管制情報です。
気象情報はより詳細な情報が取得できる「AVIATION WEATER CENTER」 から取得しているため、VATSIMの気象情報と若干のタイムラグが生じることがあります。

VRCのフィールド設定用空港一覧はこちらをご覧ください。

RJCG Sapporo Control

RJCW / Wakkanai

NO RADAR

RADIO

08/26 2200x45

民間 civil

過去5時間に発表されたMETARがありません。

RJER / Rishiri

NO RADAR

REMOTE

25/07 1800x45

民間 civil

過去5時間に発表されたMETARがありません。

RJEB / Monbetsu

NO RADAR

REMOTE

32/14 2000x45

民間 civil

過去5時間に発表されたMETARがありません。

RJCM / Memanbetsu

NO RADAR

TOWER

36/18 2500x45

民間 civil

過去5時間に発表されたMETARがありません。

RJEC / Asahikawa

NO RADAR

TOWER

34/16 2500x60

民間 civil

過去5時間に発表されたMETARがありません。

RJCN / Nakashibetsu

NO RADAR

RADIO

08/26 2000x45

民間 civil

過去5時間に発表されたMETARがありません。

RJCK / Kushiro

NO RADAR

TOWER

17/35 2500x45

民間 civil

過去5時間に発表されたMETARがありません。

RJCO / Sapporo

RJCO_APP

TOWER

14/32 1500x30

共用 dual

過去5時間に発表されたMETARがありません。

RJCJ / Chitose

RJCC_APP

TOWER

36R/18L 3000x60
36L/18R 2700x45

自衛隊 military

過去5時間に発表されたMETARがありません。

RJCC / NewChitose
IMC

RJCC_APP

TOWER

01L/19R 3000x60
01R/19L 3000x60

民間 civil

2000

160@6KT

29.82

RJCC 091938Z 16006KT 2000 -DZ BR FEW001 BKN002 BKN003 20/20 Q1010 RMK 2ST001 5ST002 7ST003 A2984

RJCB / Obihiro

NO RADAR

TOWER

35/17 2500x45

民間 civil

過去5時間に発表されたMETARがありません。

RJEO / Okushiri

NO RADAR

REMOTE

12/30 1500x45

民間 civil

過去5時間に発表されたMETARがありません。

RJCH / Hakodate

RJCH_APP

TOWER

12/30 3000x45

民間 civil

過去5時間に発表されたMETARがありません。

RJSA / Aomori

NO RADAR

TOWER

24/06 3000x60

民間 civil

過去5時間に発表されたMETARがありません。

RJSO / Ominato
VMC

RJSM_APP

TOWER

04/22 600x45

自衛隊 military

5000

240@6KT

29.82

RJSO 091736Z 24006KT 5000 -SHRA BR FEW001 SCT005 BKN015 23/22 Q1010 RMK 1ST001 4ST005 7CU015 A2984

RJSM / Misawa
VMC

RJSM_APP

TOWER

10/28 3050x45

共用 dual

9999

000@0KT

29.82

RJSM 091900Z 00000KT 9999 FEW002 SCT003 BKN045 22/22 Q1010

RJSH / Hachinohe

RJSM_APP

TOWER

25/07 2250x45

自衛隊 military

過去5時間に発表されたMETARがありません。

RJSK / Akita

NO RADAR

TOWER

10/28 2500x60

民間 civil

過去5時間に発表されたMETARがありません。

RJSI / Hanamaki

NO RADAR

RADIO

20/02 2500x45

民間 civil

過去5時間に発表されたMETARがありません。

RJSR / Odate-Noshiro

NO RADAR

REMOTE

11/29 2000x45

民間 civil

過去5時間に発表されたMETARがありません。

RJTG Tokyo Control

RJSY / Shonai

NO RADAR

RADIO

09/27 2000x45

民間 civil

過去5時間に発表されたMETARがありません。

RJSC / Yamagata

NO RADAR

RADIO

01/19 2000x45

民間 civil

過去5時間に発表されたMETARがありません。

RJST / Matsushima

RJSS_APP

TOWER

07/25 2071x46
15/33 1500x46

自衛隊 military

過去5時間に発表されたMETARがありません。

RJSS / Sendai

RJSS_APP

TOWER

27/09 3000x45
12/30 1200x45

民間 civil

過去5時間に発表されたMETARがありません。

RJSD / Sado
VMC

NO RADAR

REMOTE

10/28 890x25

民間 civil

9999

000@2KT

29.85

RJSD 091900Z AUTO VRB02KT 9999 NCD 22/22 Q1011

RJSN / Niigata

RJSN_APP

TOWER

10/28 2500x45
04/22 1314x45

民間 civil

過去5時間に発表されたMETARがありません。

RJSF / Fukushima

NO RADAR

RADIO

01/19 2500x60

民間 civil

過去5時間に発表されたMETARがありません。

RJAH / Ibaraki/Hyakuri
IMC

RJAH_APP

TOWER

03L/21R 2700x45
03R/21L 2700x45

共用 dual

3000

000@0KT

29.88

RJAH 091938Z 00000KT 3000 BR MIFG FEW030 BKN/// 24/23 Q1012 RMK 1CU030 A2990 VIS N-NE 2500M

RJTT / Tokyo
VMC

RJTT_APP

TOWER

34LR/16RL 3000x60
04/22&05/23 2500x60

民間 civil

9999

260@4KT

29.88

RJTT 091930Z 26004KT 9999 FEW030 BKN/// 29/25 Q1012 NOSIG RMK 1CU030 A2989

RJAA / Narita
VMC

RJTT_APP

TOWER

34L/16R 4000x60
34R/16L 2500x60

民間 civil

9999

110@2KT

29.88

RJAA 091930Z 11002KT 9999 FEW030 BKN/// 24/23 Q1012 NOSIG

RJTL / Shimofusa

RJTT_APP

TOWER

19/01 2250x45

自衛隊 military

過去5時間に発表されたMETARがありません。

RJTE / Tateyama

RJTT_APP

TOWER

09/27 300x45

自衛隊 military

過去5時間に発表されたMETARがありません。

RJTO / Oshima

NO RADAR

RADIO

03/21 1800x45

民間 civil

過去5時間に発表されたMETARがありません。

RJTK / Kisarazu

NO RADAR

TOWER

02/20 1830x45

自衛隊 military

過去5時間に発表されたMETARがありません。

RJAN / Niijima

NO RADAR

REMOTE

11/29 800x25

自衛隊 military

過去5時間に発表されたMETARがありません。

RJAZ / Kozushima

NO RADAR

REMOTE

11/29 800x25

民間 civil

過去5時間に発表されたMETARがありません。

RJTH / Hachijojima

NO RADAR

RADIO

26/08 2000x45

民間 civil

過去5時間に発表されたMETARがありません。

RJTF / Chofu

NO RADAR

Flight Service

35/17 800x30

民間 civil

過去5時間に発表されたMETARがありません。

RJTQ / Miyake

NO RADAR

REMOTE

02/20 1200x30

民間 civil

過去5時間に発表されたMETARがありません。

RJTC / Tachikawa

NO RADAR

TOWER

01/19 900x45

自衛隊 military

過去5時間に発表されたMETARがありません。

RJTA / Atsugi

NO RADAR

TOWER

01/19 2438x45

自衛隊 military

過去5時間に発表されたMETARがありません。

RJTU / Utsunomiya

RJTY_APP

TOWER

01/19 1700x45

自衛隊 military

過去5時間に発表されたMETARがありません。

RJTJ / Iruma

RJTY_APP

TOWER

17/35 2000x45

自衛隊 military

過去5時間に発表されたMETARがありません。

RJTY / Yokota
VMC

RJTY_APP

TOWER

18/36 3353x60

自衛隊 military

9999

000@0KT

29.96

RJTY 091856Z AUTO 00000KT 10SM CLR 26/24 A2996 RMK AO2 SLP139 T02630235 FZRANO $

RJAF / Matsumoto

NO RADAR

RADIO

18/36 2000x45

民間 civil

過去5時間に発表されたMETARがありません。

RJNS / Shizuoka

NO RADAR

RADIO

30/12 2500x60

民間 civil

過去5時間に発表されたMETARがありません。

RJNY / Yaizu-Shizuhama

NO RADAR

TOWER

27/09 1500x45

自衛隊 military

過去5時間に発表されたMETARがありません。

RJNH / Hamamatsu

RJNH_APP

TOWER

09/27 2550x60

自衛隊 military

過去5時間に発表されたMETARがありません。

RJGG / Chubu
VMC

RJGG_APP

TOWER

36/18 3500x60

民間 civil

9999

210@3KT

29.91

RJGG 091930Z 21003KT 9999 FEW020 SCT120 BKN170 28/24 Q1013 NOSIG

RJNA / Nagoya

RJGG_APP

TOWER

34/16 2740x45

民間 civil

過去5時間に発表されたMETARがありません。

RJNG / Gifu
VMC

RJGG_APP

TOWER

28/10 2710x46

自衛隊 military

9999

000@2KT

29.88

RJNG 091633Z VRB02KT 9999 FEW030 BKN100 27/25 Q1012 RMK 1CU030 5AC100 A2991

RJOE / Akeno

RJOE_APP

TOWER

13/31 500x30
04/22 500x30

自衛隊 military

過去5時間に発表されたMETARがありません。

RJNK / Komatsu
VMC

RJNK_APP

TOWER

06/24 2700x45

共用 dual

9999

000@1KT

29.82

RJNK 091900Z VRB01KT 9999 BKN100 SCT150 27/22 Q1010

RJNW / Noto

NO RADAR

RADIO

25/07 2000x45

民間 civil

過去5時間に発表されたMETARがありません。

RJNT / Toyama

NO RADAR

TOWER

20/02 2000x45

民間 civil

過去5時間に発表されたMETARがありません。

RJNF / Fukui

NO RADAR

REMOTE

18/36 1200x30

民間 civil

過去5時間に発表されたMETARがありません。

RJBD / Nanki-Shirahama

NO RADAR

RADIO

15/33 2000x45

民間 civil

過去5時間に発表されたMETARがありません。

RJOY / Yao

RJBB_APP

TOWER

27/09 1490x45
13/31 1200x30

民間 civil

過去5時間に発表されたMETARがありません。

RJOO / Osaka

RJBB_APP

TOWER

32L/14R 3000x60
32R/14L 1830x45

民間 civil

過去5時間に発表されたMETARがありません。

RJOB / Okayama

RJBB_APP

TOWER

07/25 3000x45

民間 civil

過去5時間に発表されたMETARがありません。

RJBB / Kansai
VMC

RJBB_APP

TOWER

06R/24L 3500x60
06L/24R 4000x60

民間 civil

9999

180@7KT

29.88

RJBB 091930Z AUTO 18007KT 9999 FEW021 BKN180 BKN190 28/25 Q1012 NOSIG

RJBE / Kobe

RJBB_APP

TOWER

09/27 2500x60

民間 civil

過去5時間に発表されたMETARがありません。

RJBT / Tajima

NO RADAR

REMOTE

01/19 1200x30

民間 civil

過去5時間に発表されたMETARがありません。

RJOR / Tottori

NO RADAR

RADIO

10/28 2000x45

民間 civil

過去5時間に発表されたMETARがありません。

RJNO / Oki

NO RADAR

REMOTE

07/25 2000x45

民間 civil

過去5時間に発表されたMETARがありません。

RJOH / Miho
VMC

RJOH_APP

TOWER

25/07 2500x45

共用 dual

9999

190@6KT

29.79

RJOH 091900Z 19006KT 9999 FEW030 SCT/// 28/22 Q1009

RJOC / Izumo

RJOH_APP

RADIO

07/25 2000x45

共用 dual

過去5時間に発表されたMETARがありません。

RJDG Fukuoka Control

RJOT / Takamatsu

RJBB_APP

TOWER

26/08 2500x60

民間 civil

過去5時間に発表されたMETARがありません。

RJOK / Kochi

RJBB_APP

TOWER

32/14 2500x45

民間 civil

過去5時間に発表されたMETARがありません。

RJOS / Tokushima
VMC

RJOS_APP

TOWER

29/11 2500x45

共用 dual

9999

160@11KT

29.88

RJOS 091900Z 16011KT 9999 -SHRA FEW020 SCT030 BKN140 27/25 Q1012

RJOA / Hiroshima

RJOA_APP

TOWER

10/28 3000x60

民間 civil

過去5時間に発表されたMETARがありません。

RJBH / Hiroshimanishi

NO RADAR

Flight Service

04/22 1800x45

民間 civil

過去5時間に発表されたMETARがありません。

RJOI / Iwakuni
VMC

RJOI_APP

TOWER

02/20 2440x60

共用 dual

9999

160@7KT

29.85

RJOI 091855Z 16007KT 9999 FEW020 FEW030 SCT160 27/23 A2985 RMK SLP109 T02720233

RJOM / Matsuyama

RJOI_APP

TOWER

14/32 2500x45

民間 civil

過去5時間に発表されたMETARがありません。

RJOZ / Ozuki

RJFZ_APP

TOWER

35/17 1201x61
12/30 899x46

自衛隊 military

過去5時間に発表されたMETARがありません。

RJOF / Hofu
VMC

RJFZ_APP

TOWER

30/12 1180x60
01/19 1480x45

自衛隊 military

9999

120@17KT

29.79

RJOF 091731Z 12017KT 9999 FEW008 BKN010 BKN170 27/26 Q1009 RMK 2ST008 5ST010 7AC170 A2982

RJDC / Yamaguchi-Ube

RJFZ_APP

RADIO

07/25 2500x45

民間 civil

過去5時間に発表されたMETARがありません。

RJFR / Kitakyushu
VMC

RJFZ_APP

TOWER

18/36 2500x60

民間 civil

9999

110@9KT

29.73

RJFR 091900Z 11009KT 020V180 9999 FEW030 BKN170 28/25 Q1007

RJFZ / Tsuiki

RJFZ_APP

TOWER

25/07 2399x46

自衛隊 military

過去5時間に発表されたMETARがありません。

RJOW / Iwami

NO RADAR

REMOTE

11/29 2000x45

民間 civil

過去5時間に発表されたMETARがありません。

RJDT / Tsushima

NO RADAR

REMOTE

32/14 1900x45

民間 civil

過去5時間に発表されたMETARがありません。

RJFF / Fukuoka
VMC

RJFF_APP

TOWER

16/34 2800x60

民間 civil

9999

150@11KT

29.73

RJFF 091930Z AUTO 15011KT 9999 NSC 27/23 Q1007 NOSIG RMK A2975

RJFS / Saga

RJFF_APP

RADIO

29/11 2000x45

民間 civil

過去5時間に発表されたMETARがありません。

RJFA / Ashiya

RJFF_APP

TOWER

12/30 1640x46

自衛隊 military

過去5時間に発表されたMETARがありません。

RJDB / Iki

RJFF_APP

REMOTE

20/02 1200x30

民間 civil

過去5時間に発表されたMETARがありません。

RJFO / Oita

RJFO_APP

TOWER

01/19 3000x45

民間 civil

過去5時間に発表されたMETARがありません。

RJFU / Nagasaki

RJFU_APP

TOWER

32/14 3000x60

民間 civil

過去5時間に発表されたMETARがありません。

RJDU / Omura

RJFU_APP

TOWER

18/36 1200x30

自衛隊 military

過去5時間に発表されたMETARがありません。

RJFE / Fukue

NO RADAR

RADIO

03/21 2000x45

民間 civil

過去5時間に発表されたMETARがありません。

RJDO / Ojika

NO RADAR

REMOTE

03/21 800x30

民間 civil

過去5時間に発表されたMETARがありません。

RJDK / Kamigoto

NO RADAR

REMOTE

17/35 800x30

民間 civil

過去5時間に発表されたMETARがありません。

RJDA / Amakusa

NO RADAR

Flight Service

31/13 1000x30

民間 civil

過去5時間に発表されたMETARがありません。

RJFT / Kumamoto

RJFT_APP

TOWER

07/25 3000x45

民間 civil

過去5時間に発表されたMETARがありません。

RJFN / Nyutabaru

RJFM_APP

TOWER

28/10 2701x46

自衛隊 military

過去5時間に発表されたMETARがありません。

RJFM / Miyazaki

RJFM_APP

TOWER

27/09 2500x45

民間 civil

過去5時間に発表されたMETARがありません。

RJFK / Kagoshima

RJFK_APP

TOWER

34/16 3000x45

民間 civil

過去5時間に発表されたMETARがありません。

RJFY / Kanoya

RJFY_APP

TOWER

26L/08R 2250x45
26R/08L 1200x40

自衛隊 military

過去5時間に発表されたMETARがありません。

RJFG / Tanegashima

NO RADAR

RADIO

31/13 2000x45

民間 civil

過去5時間に発表されたMETARがありません。

RJFC / Yakushima

NO RADAR

REMOTE

14/32 1500x45

民間 civil

過去5時間に発表されたMETARがありません。

RJBG Kobe Control

ROAH / Naha
VMC

ROAH_APP

TOWER

36/18 3000x45

共用 dual

9999

190@24KT

29.73

ROAH 091930Z 19024KT 9999 VCSH FEW015 SCT020 28/26 Q1007 RMK 2CU015 4CU020 A2974

RORA / Aguni

ROAH_APP

REMOTE

01/19 800x25

民間 civil

過去5時間に発表されたMETARがありません。

ROKJ / Kumejima

ROAH_APP

REMOTE

03/21 2000x45

民間 civil

過去5時間に発表されたMETARがありません。

RODN / Kadena
VMC

ROAH_APP

TOWER

05L/23R 3688x91
05R/23L 3688x61

自衛隊 military

9999

180@15KT

29.75

RODN 091937Z AUTO 18015KT 10SM BKN015 BKN021 OVC090 28/26 A2975 RMK AO2 RAB26E32DZB32E36RAB36E37 SLP079 $

ROTM / Futenma
VMC

ROAH_APP

TOWER

06/24 2740x45

自衛隊 military

8000

180@15G23KT

29.76

ROTM 091915Z COR 18015G23KT 8000 -SHRA BR SCT015 BKN025 OVC043 28/26 A2976 RMK RAB15 SLP060 WND WRNG T2 SET

RORS / Shimojishima

RORS_APP

TOWER

17/35 3000x60

民間 civil

過去5時間に発表されたMETARがありません。

ROMY / Miyako

RORS_APP

TOWER

04/22 2000x45

民間 civil

過去5時間に発表されたMETARがありません。

ROIG / New Ishigaki

RORS_APP

TOWER

22/04 2000x45

民間 civil

過去5時間に発表されたMETARがありません。

RORT / Tarama

RORS_APP

REMOTE

36/18 1500x45

民間 civil

過去5時間に発表されたMETARがありません。

RJKA / Amami

NO RADAR

RADIO

03/21 2000x45

民間 civil

過去5時間に発表されたMETARがありません。

RJKI / Kikai
VMC

NO RADAR

REMOTE

07/25 1200x30

民間 civil

9999

170@13G24KT

29.73

RJKI 091900Z AUTO 17013G24KT 130V200 9999 FEW020 BKN023 29/26 Q1007

RJKN / Tokunoshima

NO RADAR

REMOTE

19/01 2000x45

民間 civil

過去5時間に発表されたMETARがありません。

RJKB / Okierabu

NO RADAR

REMOTE

04/22 1350x45

民間 civil

過去5時間に発表されたMETARがありません。

RORY / Yoron
VMC

NO RADAR

REMOTE

32/14 1320x30

民間 civil

4900

210@16KT

29.70

RORY 091900Z AUTO 21016KT 180V250 4900 RA BR FEW008 BKN019 BKN045 //////CB 28/27 Q1006

RORK / Kitadaito
VMC

NO RADAR

REMOTE

03/21 1500x45

民間 civil

9000

170@20KT

29.88

RORK 091900Z AUTO 17020KT 9000 FEW032 SCT047 BKN070 //////TCU 26/25 Q1012

ROMD / Minami-daito
VMC

NO RADAR

REMOTE

02/20 1500x45

民間 civil

9000

180@13KT

29.88

ROMD 091900Z AUTO 18013KT 130V200 9000 -RA FEW044 SCT090 BKN100 //////TCU 25/24 Q1012

ROYN / Yonaguni
VMC

NO RADAR

REMOTE

26/08 2000x45

民間 civil

9999

190@11KT

29.65

ROYN 091900Z AUTO 19011KT 9999 SCT019 29/26 Q1004

RORH / Hateruma

NO RADAR

REMOTE

02/20 800x25

民間 civil

過去5時間に発表されたMETARがありません。

ROKR / Kerama

NO RADAR

REMOTE

02/20 800x25

民間 civil

過去5時間に発表されたMETARがありません。